createdAt,value
2019-04-03T00:00:31.360Z,5.23
2019-04-03T00:03:35.150Z,5.22
2019-04-03T00:06:38.956Z,5.25
2019-04-03T00:09:42.600Z,5.26
2019-04-03T00:12:46.393Z,5.28
2019-04-03T00:15:50.520Z,5.33
2019-04-03T00:18:54.371Z,5.32
2019-04-03T00:21:58.080Z,5.27
2019-04-03T00:25:01.802Z,5.27
2019-04-03T00:28:05.515Z,5.21
2019-04-03T00:31:09.217Z,5.16
2019-04-03T00:34:13.104Z,5.18
2019-04-03T00:37:16.776Z,5.17
2019-04-03T00:40:20.713Z,5.18
2019-04-03T00:43:25.318Z,5.02
2019-04-03T00:46:29.219Z,5.02
2019-04-03T00:49:33.069Z,5.10
2019-04-03T00:52:36.743Z,5.10
2019-04-03T00:55:42.074Z,5.09
2019-04-03T00:58:45.762Z,5.09
2019-04-03T01:01:49.429Z,5.06
2019-04-03T01:04:53.093Z,5.04
2019-04-03T01:07:59.238Z,5.04
2019-04-03T01:11:02.292Z,5.02
2019-04-03T01:14:06.205Z,4.98
2019-04-03T01:17:10.074Z,4.97
2019-04-03T01:20:13.768Z,4.93
2019-04-03T01:23:17.417Z,4.89
2019-04-03T01:26:21.547Z,4.89
2019-04-03T01:29:25.419Z,4.86
2019-04-03T01:32:29.142Z,4.82
2019-04-03T01:35:32.959Z,4.81
2019-04-03T01:38:36.654Z,4.77
2019-04-03T01:41:40.901Z,4.72
2019-04-03T01:44:47.998Z,4.74
2019-04-03T01:47:52.389Z,4.75
2019-04-03T01:50:56.255Z,4.70
2019-04-03T01:54:13.723Z,4.68
2019-04-03T01:57:06.667Z,4.66
2019-04-03T02:00:11.633Z,4.65
2019-04-03T02:03:15.384Z,4.62
2019-04-03T02:06:19.081Z,4.60
2019-04-03T02:09:22.840Z,4.55
2019-04-03T02:12:27.573Z,4.55
2019-04-03T02:15:35.056Z,4.52
2019-04-03T02:18:39.053Z,4.53
2019-04-03T02:21:43.058Z,4.54
2019-04-03T02:24:50.063Z,4.50
2019-04-03T02:27:54.178Z,4.48
2019-04-03T02:31:00.197Z,4.50
2019-04-03T02:34:03.934Z,4.51
2019-04-03T02:37:10.827Z,4.48
2019-04-03T02:40:14.552Z,4.48
2019-04-03T02:43:19.860Z,4.46
2019-04-03T02:46:27.748Z,4.42
2019-04-03T02:49:31.037Z,4.40
2019-04-03T02:52:35.339Z,4.44
2019-04-03T02:55:40.603Z,4.43
2019-04-03T02:58:44.776Z,4.38
2019-04-03T03:01:48.390Z,4.38
2019-04-03T03:04:54.759Z,4.34
2019-04-03T03:07:57.749Z,4.31
2019-04-03T03:11:02.908Z,4.27
2019-04-03T03:14:07.677Z,4.26
2019-04-03T03:17:11.838Z,4.27
2019-04-03T03:20:15.939Z,4.26
2019-04-03T03:23:22.460Z,4.25
2019-04-03T03:26:25.515Z,4.23
2019-04-03T03:29:29.563Z,4.22
2019-04-03T03:32:35.685Z,4.21
2019-04-03T03:35:43.945Z,4.18
2019-04-03T03:38:44.655Z,4.16
2019-04-03T03:41:48.368Z,4.13
2019-04-03T03:44:53.096Z,4.11
2019-04-03T03:47:56.338Z,4.09
2019-04-03T03:50:59.930Z,4.08
2019-04-03T03:54:04.406Z,4.04
2019-04-03T03:57:08.033Z,4.04
2019-04-03T04:00:11.709Z,4.03
2019-04-03T04:03:15.472Z,3.98
2019-04-03T04:06:19.339Z,3.98
2019-04-03T04:09:24.036Z,4.00
2019-04-03T04:12:27.987Z,3.96
2019-04-03T04:15:31.911Z,3.94
2019-04-03T04:18:36.025Z,3.95
2019-04-03T04:21:42.635Z,3.89
2019-04-03T04:24:45.290Z,3.98
2019-04-03T04:27:49.126Z,3.98
2019-04-03T04:30:52.789Z,4.00
2019-04-03T04:33:56.659Z,4.00
2019-04-03T04:37:02.141Z,4.01
2019-04-03T04:40:05.713Z,4.04
2019-04-03T04:43:09.514Z,4.08
2019-04-03T04:46:13.500Z,4.12
2019-04-03T04:49:18.057Z,4.14
2019-04-03T04:52:21.778Z,4.18
2019-04-03T04:55:27.000Z,4.21
2019-04-03T04:58:30.783Z,4.23
2019-04-03T05:01:34.513Z,4.29
2019-04-03T05:04:38.217Z,4.33
2019-04-03T05:07:41.906Z,4.37
2019-04-03T05:10:47.382Z,4.43
2019-04-03T05:13:51.025Z,4.43
2019-04-03T05:16:55.912Z,4.49
2019-04-03T05:19:59.908Z,4.53
2019-04-03T05:23:03.812Z,4.61
2019-04-03T05:26:07.595Z,4.66
2019-04-03T05:29:11.382Z,4.73
2019-04-03T05:32:15.322Z,4.81
2019-04-03T05:35:18.988Z,4.92
2019-04-03T05:38:22.668Z,5.01
2019-04-03T05:41:28.558Z,5.02
2019-04-03T05:44:33.403Z,5.13
2019-04-03T05:47:39.275Z,5.26
2019-04-03T05:50:42.450Z,5.36
2019-04-03T05:53:46.098Z,5.51
2019-04-03T05:56:51.608Z,5.69
2019-04-03T06:00:00.814Z,5.84
2019-04-03T06:03:00.942Z,6.09
2019-04-03T06:06:04.546Z,6.25
2019-04-03T06:09:08.227Z,6.50
2019-04-03T06:12:13.899Z,6.67
2019-04-03T06:15:17.348Z,6.97
2019-04-03T06:18:21.060Z,7.29
2019-04-03T06:21:24.677Z,7.73
2019-04-03T06:24:28.363Z,7.92
2019-04-03T06:27:31.966Z,8.09
2019-04-03T06:30:35.658Z,8.11
2019-04-03T06:33:39.515Z,8.17
2019-04-03T06:36:43.159Z,8.49
2019-04-03T06:39:46.978Z,8.48
2019-04-03T06:42:50.895Z,8.67
2019-04-03T06:45:57.001Z,8.66
2019-04-03T06:49:00.304Z,8.65
2019-04-03T06:52:04.459Z,8.70
2019-04-03T06:55:08.161Z,8.89
2019-04-03T06:58:12.355Z,9.13
2019-04-03T07:01:16.392Z,9.33
2019-04-03T07:04:20.390Z,9.36
2019-04-03T07:07:33.519Z,9.25
2019-04-03T07:10:29.411Z,9.30
2019-04-03T07:13:33.029Z,9.52
2019-04-03T07:16:38.614Z,9.68
2019-04-03T07:19:42.144Z,10.03
2019-04-03T07:22:45.801Z,10.27
2019-04-03T07:25:49.611Z,10.00
2019-04-03T07:28:53.312Z,10.29
2019-04-03T07:31:57.096Z,10.56
2019-04-03T07:35:00.794Z,10.73
2019-04-03T07:38:04.778Z,10.76
2019-04-03T07:41:08.436Z,10.97
2019-04-03T07:44:12.298Z,10.97
2019-04-03T07:47:16.213Z,10.92
2019-04-03T07:50:19.946Z,11.08
2019-04-03T07:53:23.611Z,10.92
2019-04-03T07:56:27.292Z,11.05
2019-04-03T07:59:33.461Z,11.28
2019-04-03T08:02:36.567Z,10.70
2019-04-03T08:05:40.432Z,11.02
2019-04-03T08:08:45.163Z,11.26
2019-04-03T08:11:49.103Z,11.59
2019-04-03T08:14:52.776Z,11.96
2019-04-03T08:17:57.823Z,12.15
2019-04-03T08:21:02.268Z,12.74
2019-04-03T08:24:08.191Z,12.97
2019-04-03T08:27:11.599Z,13.01
2019-04-03T08:30:15.742Z,12.73
2019-04-03T08:33:25.590Z,12.40
2019-04-03T08:36:26.401Z,12.63
2019-04-03T08:39:30.774Z,12.71
2019-04-03T08:42:34.778Z,12.62
2019-04-03T08:45:39.249Z,12.46
2019-04-03T08:48:43.458Z,12.60
2019-04-03T08:51:47.079Z,12.33
2019-04-03T08:54:50.878Z,12.27
2019-04-03T08:57:54.569Z,12.51
2019-04-03T09:00:58.529Z,12.96
2019-04-03T09:04:02.108Z,13.16
2019-04-03T09:07:05.776Z,13.39
2019-04-03T09:10:09.412Z,13.42
2019-04-03T09:13:17.395Z,13.51
2019-04-03T09:16:18.453Z,13.48
2019-04-03T09:19:22.065Z,13.73
2019-04-03T09:22:26.160Z,14.28
2019-04-03T09:25:31.596Z,14.15
2019-04-03T09:28:35.562Z,13.96
2019-04-03T09:31:39.494Z,14.05
2019-04-03T09:34:43.607Z,14.36
2019-04-03T09:37:47.789Z,14.71
2019-04-03T09:40:52.016Z,14.97
2019-04-03T09:43:56.016Z,15.42
2019-04-03T09:47:02.919Z,15.51
2019-04-03T09:50:07.583Z,15.73
2019-04-03T09:53:11.562Z,15.80
2019-04-03T09:56:15.431Z,16.08
2019-04-03T09:59:19.157Z,16.13
2019-04-03T10:02:22.954Z,16.13
2019-04-03T10:05:28.990Z,15.64
2019-04-03T10:08:32.530Z,15.54
2019-04-03T10:11:38.427Z,15.80
2019-04-03T10:14:42.150Z,16.23
2019-04-03T10:17:46.092Z,16.68
2019-04-03T10:20:49.879Z,16.65
2019-04-03T10:23:53.600Z,17.01
2019-04-03T10:26:57.211Z,17.01
2019-04-03T10:30:01.142Z,17.65
2019-04-03T10:33:05.560Z,17.96
2019-04-03T10:36:11.443Z,17.83
2019-04-03T10:39:15.962Z,17.67
2019-04-03T10:42:19.312Z,17.39
2019-04-03T10:45:23.084Z,17.52
2019-04-03T10:48:27.867Z,17.83
2019-04-03T10:51:32.587Z,17.22
2019-04-03T10:54:38.010Z,17.22
2019-04-03T10:57:42.899Z,16.74
2019-04-03T11:00:46.812Z,16.84
2019-04-03T11:03:50.850Z,17.25
2019-04-03T11:06:54.741Z,16.92
2019-04-03T11:09:58.582Z,16.45
2019-04-03T11:13:03.268Z,16.58
2019-04-03T11:16:07.826Z,17.22
2019-04-03T11:19:11.786Z,17.22
2019-04-03T11:22:16.305Z,17.07
2019-04-03T11:25:19.929Z,16.96
2019-04-03T11:28:24.183Z,16.76
2019-04-03T11:31:29.585Z,16.85
2019-04-03T11:34:33.859Z,16.52
2019-04-03T11:37:37.790Z,15.78
2019-04-03T11:40:41.822Z,15.38
2019-04-03T11:43:45.502Z,15.41
2019-04-03T11:46:50.526Z,15.34
2019-04-03T11:49:53.562Z,15.38
2019-04-03T11:52:59.151Z,15.46
2019-04-03T11:56:03.266Z,15.54
2019-04-03T11:59:07.359Z,15.39
2019-04-03T12:02:11.928Z,15.37
2019-04-03T12:05:19.950Z,15.43
2019-04-03T12:08:21.793Z,15.35
2019-04-03T12:11:25.956Z,15.32
2019-04-03T12:14:29.902Z,15.29
2019-04-03T12:17:34.624Z,15.17
2019-04-03T12:20:41.209Z,15.27
2019-04-03T12:23:45.372Z,15.41
2019-04-03T12:26:51.703Z,15.53
2019-04-03T12:29:55.700Z,15.53
2019-04-03T12:33:00.409Z,15.62
2019-04-03T12:36:06.676Z,15.54
2019-04-03T12:39:14.539Z,15.37
2019-04-03T12:42:18.336Z,15.20
2019-04-03T12:45:22.147Z,15.26
2019-04-03T12:48:27.866Z,15.36
2019-04-03T12:51:31.582Z,15.18
2019-04-03T12:54:36.657Z,15.17
2019-04-03T12:57:41.684Z,15.12
2019-04-03T13:00:46.131Z,15.09
2019-04-03T13:03:50.557Z,15.12
2019-04-03T13:06:54.629Z,15.06
2019-04-03T13:09:58.970Z,15.01
2019-04-03T13:13:03.441Z,14.94
2019-04-03T13:16:10.276Z,14.89
2019-04-03T13:19:15.977Z,15.04
2019-04-03T13:22:20.331Z,15.11
2019-04-03T13:25:24.174Z,15.11
2019-04-03T13:28:28.474Z,15.05
2019-04-03T13:31:32.438Z,14.99
2019-04-03T13:34:36.509Z,14.99
2019-04-03T13:37:40.894Z,15.06
2019-04-03T13:40:45.044Z,15.00
2019-04-03T13:43:49.230Z,15.03
2019-04-03T13:46:53.390Z,15.10
2019-04-03T13:49:57.401Z,15.11
2019-04-03T13:53:01.686Z,15.22
2019-04-03T13:56:06.598Z,15.12
2019-04-03T13:59:11.021Z,15.11
2019-04-03T14:02:15.174Z,15.12
2019-04-03T14:05:19.176Z,15.18
2019-04-03T14:08:23.339Z,15.23
2019-04-03T14:11:29.878Z,15.28
2019-04-03T14:14:33.039Z,15.15
2019-04-03T14:17:37.133Z,15.10
2019-04-03T14:20:41.299Z,15.12
2019-04-03T14:23:45.058Z,14.98
2019-04-03T14:26:48.900Z,14.93
2019-04-03T14:29:52.654Z,14.86
2019-04-03T14:32:56.446Z,14.76
2019-04-03T14:36:00.180Z,14.69
2019-04-03T14:39:08.753Z,14.67
2019-04-03T14:42:11.003Z,14.66
2019-04-03T14:45:15.358Z,14.63
2019-04-03T14:48:19.731Z,14.58
2019-04-03T14:51:24.014Z,14.47
2019-04-03T14:54:30.353Z,14.36
2019-04-03T14:57:33.444Z,14.27
2019-04-03T15:00:37.893Z,14.18
2019-04-03T15:03:41.707Z,14.19
2019-04-03T15:06:46.387Z,14.18
2019-04-03T15:09:51.100Z,14.21
2019-04-03T15:12:55.158Z,14.20
2019-04-03T15:16:00.358Z,14.14
2019-04-03T15:19:05.020Z,14.10
2019-04-03T15:22:08.908Z,14.09
2019-04-03T15:25:15.019Z,14.06
2019-04-03T15:28:18.829Z,14.02
2019-04-03T15:31:24.067Z,13.93
2019-04-03T15:34:29.230Z,13.83
2019-04-03T15:37:33.738Z,13.74
2019-04-03T15:40:38.494Z,13.69
2019-04-03T15:43:45.393Z,13.64
2019-04-03T15:46:47.860Z,13.58
2019-04-03T15:49:52.112Z,13.55
2019-04-03T15:52:56.376Z,13.51
2019-04-03T15:56:00.498Z,13.47
2019-04-03T15:59:04.524Z,13.41
2019-04-03T16:02:10.515Z,13.38
2019-04-03T16:05:14.957Z,13.33
2019-04-03T16:08:18.699Z,13.29
2019-04-03T16:11:22.603Z,13.26
2019-04-03T16:14:28.168Z,13.21
2019-04-03T16:17:33.932Z,13.12
2019-04-03T16:20:37.433Z,13.07
2019-04-03T16:23:45.004Z,13.04
2019-04-03T16:26:49.317Z,12.97
2019-04-03T16:29:53.978Z,12.86
2019-04-03T16:33:01.830Z,12.75
2019-04-03T16:36:03.562Z,12.73
2019-04-03T16:39:08.268Z,12.67
2019-04-03T16:42:12.453Z,12.59
2019-04-03T16:45:16.322Z,12.55
2019-04-03T16:48:21.349Z,12.49
2019-04-03T16:51:24.627Z,12.40
2019-04-03T16:54:29.777Z,12.35
2019-04-03T16:57:34.644Z,12.35
2019-04-03T17:00:40.961Z,12.23
2019-04-03T17:03:44.426Z,12.20
2019-04-03T17:06:49.082Z,12.16
2019-04-03T17:09:52.740Z,12.17
2019-04-03T17:12:58.030Z,12.11
2019-04-03T17:16:02.471Z,12.09
2019-04-03T17:19:07.774Z,12.02
2019-04-03T17:22:11.730Z,11.96
2019-04-03T17:25:16.516Z,11.94
2019-04-03T17:28:21.034Z,11.93
2019-04-03T17:31:25.766Z,11.83
2019-04-03T17:34:29.712Z,11.74
2019-04-03T17:37:33.522Z,11.61
2019-04-03T17:40:37.326Z,11.56
2019-04-03T17:43:43.076Z,11.55
2019-04-03T17:46:49.357Z,11.48
2019-04-03T17:49:54.588Z,11.40
2019-04-03T17:52:58.511Z,11.32
2019-04-03T17:56:04.915Z,11.23
2019-04-03T17:59:10.483Z,11.25
2019-04-03T18:02:16.151Z,11.21
2019-04-03T18:05:21.744Z,11.15
2019-04-03T18:08:25.509Z,11.14
2019-04-03T18:11:29.352Z,11.08
2019-04-03T18:14:33.202Z,11.04
2019-04-03T18:17:37.133Z,10.95
2019-04-03T18:20:44.332Z,10.93
2019-04-03T18:23:48.664Z,10.88
2019-04-03T18:26:52.778Z,10.80
2019-04-03T18:29:58.192Z,10.77
2019-04-03T18:33:02.320Z,10.73
2019-04-03T18:36:07.810Z,10.57
2019-04-03T18:39:11.889Z,10.51
2019-04-03T18:42:18.567Z,10.41
2019-04-03T18:45:25.776Z,10.37
2019-04-03T18:48:31.274Z,10.30
2019-04-03T18:51:36.726Z,10.30
2019-04-03T18:54:42.493Z,10.22
2019-04-03T18:57:49.577Z,10.08
2019-04-03T19:00:53.531Z,9.95
2019-04-03T19:03:57.559Z,9.80
2019-04-03T19:07:01.503Z,9.68
2019-04-03T19:10:07.964Z,9.60
2019-04-03T19:13:13.988Z,9.56
2019-04-03T19:16:29.527Z,9.52
2019-04-03T19:19:25.819Z,9.45
2019-04-03T19:22:30.090Z,9.45
2019-04-03T19:25:34.320Z,9.39
2019-04-03T19:28:38.338Z,9.34
2019-04-03T19:31:42.748Z,9.26
2019-04-03T19:34:46.958Z,9.23
2019-04-03T19:37:51.358Z,9.18
2019-04-03T19:40:55.366Z,9.10
2019-04-03T19:44:00.667Z,9.03
2019-04-03T19:47:14.112Z,8.96
2019-04-03T19:50:21.321Z,8.91
2019-04-03T19:53:25.712Z,8.85
2019-04-03T19:56:29.526Z,8.84
2019-04-03T19:59:34.659Z,8.82
2019-04-03T20:02:43.020Z,8.79
2019-04-03T20:05:45.823Z,8.74
2019-04-03T20:08:49.798Z,8.71
2019-04-03T20:11:53.613Z,8.69
2019-04-03T20:14:58.998Z,8.66
2019-04-03T20:18:04.769Z,8.62
2019-04-03T20:21:09.884Z,8.57
2019-04-03T20:24:13.878Z,8.49
2019-04-03T20:27:19.773Z,8.46
2019-04-03T20:30:23.568Z,8.43
2019-04-03T20:33:27.544Z,8.40
2019-04-03T20:36:31.390Z,8.35
2019-04-03T20:39:35.282Z,8.28
2019-04-03T20:42:41.474Z,8.26
2019-04-03T20:45:45.363Z,8.16
2019-04-03T20:48:49.138Z,8.10
2019-04-03T20:51:53.493Z,8.09
2019-04-03T20:54:57.124Z,8.03
2019-04-03T20:58:00.829Z,7.95
2019-04-03T21:01:06.884Z,7.92
2019-04-03T21:04:09.968Z,7.90
2019-04-03T21:07:13.666Z,7.89
2019-04-03T21:10:17.444Z,7.84
2019-04-03T21:13:21.196Z,7.80
2019-04-03T21:16:33.075Z,7.80
2019-04-03T21:19:30.483Z,7.76
2019-04-03T21:22:34.486Z,7.74
2019-04-03T21:25:40.598Z,7.70
2019-04-03T21:28:44.827Z,7.63
2019-04-03T21:31:49.270Z,7.60
2019-04-03T21:34:53.017Z,7.55
2019-04-03T21:37:56.671Z,7.50
2019-04-03T21:41:00.375Z,7.50
2019-04-03T21:44:04.026Z,7.50
2019-04-03T21:47:07.899Z,7.47
2019-04-03T21:50:11.654Z,7.45
2019-04-03T21:53:15.338Z,7.42
2019-04-03T21:56:19.293Z,7.44
2019-04-03T21:59:22.996Z,7.38
2019-04-03T22:02:26.748Z,7.39
2019-04-03T22:05:30.679Z,7.35
2019-04-03T22:08:34.307Z,7.31
2019-04-03T22:11:37.995Z,7.27
2019-04-03T22:14:42.894Z,7.25
2019-04-03T22:17:47.064Z,7.19
2019-04-03T22:20:51.654Z,7.17
2019-04-03T22:23:55.725Z,7.14
2019-04-03T22:26:59.415Z,7.12
2019-04-03T22:30:03.072Z,7.08
2019-04-03T22:33:06.857Z,7.07
2019-04-03T22:36:10.766Z,7.07
2019-04-03T22:39:14.502Z,7.07
2019-04-03T22:42:18.380Z,6.99
2019-04-03T22:45:22.324Z,6.96
2019-04-03T22:48:27.506Z,7.07
2019-04-03T22:51:31.546Z,7.20
2019-04-03T22:54:35.507Z,7.14
2019-04-03T22:57:39.263Z,7.10
2019-04-03T23:00:42.918Z,7.05
2019-04-03T23:03:49.107Z,7.04
2019-04-03T23:06:52.350Z,7.04
2019-04-03T23:09:56.868Z,7.00
2019-04-03T23:13:00.371Z,6.99
2019-04-03T23:16:04.062Z,6.96
2019-04-03T23:19:07.676Z,7.00
2019-04-03T23:22:11.460Z,7.03
2019-04-03T23:25:15.424Z,7.11
2019-04-03T23:28:19.082Z,7.15
2019-04-03T23:31:22.947Z,7.19
2019-04-03T23:34:26.814Z,7.21
2019-04-03T23:37:30.581Z,7.29
2019-04-03T23:40:34.778Z,7.38
2019-04-03T23:43:39.526Z,7.40
2019-04-03T23:46:45.362Z,7.46
2019-04-03T23:49:50.903Z,7.57
2019-04-03T23:52:53.975Z,7.59
2019-04-03T23:55:57.928Z,7.54
2019-04-03T23:59:01.573Z,7.52
